Time;durP1;ratioP1;P1;durP2;ratioP2;P2;SDS_P1;SDS_P2;PMS_P1;PMS_P2;Temp;Humidity;BMP_temperature;BMP_pressure;BME280_temperature;BME280_humidity;BME280_pressure;Samples;Min_cycle;Max_cycle;Signal;HPM_P1;HPM_P2
2024/02/09 00:00:23;;;;;;;53.20;6.68;;;;;;;;;;4978720;28;20057;-82
2024/02/09 00:02:52;;;;;;;48.63;7.00;;;;;;;;;;4996453;28;20061;-82
2024/02/09 00:05:19;;;;;;;54.00;6.65;;;;;;;;;;4995965;28;20153;-82
2024/02/09 00:07:48;;;;;;;43.45;5.47;;;;;;;;;;4996312;28;20133;-81
2024/02/09 00:10:20;;;;;;;45.40;6.07;;;;;;;;;;4978693;28;20049;-82
2024/02/09 00:12:48;;;;;;;47.38;6.63;;;;;;;;;;4996425;28;20053;-81
2024/02/09 00:15:18;;;;;;;35.60;5.47;;;;;;;;;;4995825;28;20042;-82
2024/02/09 00:17:45;;;;;;;49.25;6.63;;;;;;;;;;4979077;28;20112;-81
2024/02/09 00:20:13;;;;;;;42.47;5.33;;;;;;;;;;4994264;28;20481;-82
2024/02/09 00:22:40;;;;;;;40.13;5.97;;;;;;;;;;4996104;28;20146;-81
2024/02/09 00:25:10;;;;;;;46.42;5.60;;;;;;;;;;4995519;28;20125;-82
2024/02/09 00:27:40;;;;;;;39.45;5.07;;;;;;;;;;4996109;28;20046;-82
2024/02/09 00:30:07;;;;;;;42.10;4.22;;;;;;;;;;4995600;28;20042;-81
2024/02/09 00:32:35;;;;;;;52.45;5.50;;;;;;;;;;4996133;28;20065;-82
2024/02/09 00:35:03;;;;;;;53.65;5.55;;;;;;;;;;4995927;28;20046;-82
2024/02/09 00:37:30;;;;;;;47.92;6.15;;;;;;;;;;4995561;28;20046;-82
2024/02/09 00:39:56;;;;;;;44.92;5.38;;;;;;;;;;4995825;28;20046;-82
2024/02/09 00:42:23;;;;;;;43.65;5.88;;;;;;;;;;4995083;28;20042;-82
2024/02/09 00:44:50;;;;;;;57.20;5.97;;;;;;;;;;4995609;28;20058;-81
2024/02/09 00:47:17;;;;;;;48.00;4.57;;;;;;;;;;4995133;28;20049;-81
2024/02/09 00:49:45;;;;;;;46.00;5.05;;;;;;;;;;4995615;28;20069;-82
2024/02/09 00:52:14;;;;;;;36.00;4.95;;;;;;;;;;4995017;28;20478;-82
2024/02/09 00:54:42;;;;;;;37.70;4.32;;;;;;;;;;4995628;28;20042;-82
2024/02/09 00:57:08;;;;;;;33.30;4.40;;;;;;;;;;4994976;28;20100;-82
2024/02/09 00:59:38;;;;;;;45.92;4.95;;;;;;;;;;4995407;28;20046;-81
2024/02/09 01:02:06;;;;;;;31.13;2.97;;;;;;;;;;4995043;28;20105;-81
2024/02/09 01:04:37;;;;;;;41.53;5.03;;;;;;;;;;4994143;28;20492;-82
2024/02/09 01:07:10;;;;;;;38.03;3.60;;;;;;;;;;4994811;28;20050;-81
2024/02/09 01:09:37;;;;;;;33.97;4.43;;;;;;;;;;4994948;28;20141;-82
2024/02/09 02:45:14;;;;;;;47.88;5.75;;;;;;;;;;4993055;28;20047;-81
2024/02/09 03:04:17;;;;;;;55.15;6.38;;;;;;;;;;4993520;28;20070;-83
2024/02/09 03:04:20;;;;;;;62.67;6.72;;;;;;;;;;4991967;28;20137;-81
2024/02/09 03:06:47;;;;;;;58.55;6.38;;;;;;;;;;4993507;28;20065;-81
2024/02/09 03:09:34;;;;;;;48.00;5.53;;;;;;;;;;4992687;28;20080;-82
2024/02/09 03:12:01;;;;;;;54.13;8.05;;;;;;;;;;4993484;28;20050;-81
2024/02/09 03:14:30;;;;;;;55.78;6.65;;;;;;;;;;4992890;28;20047;-81
2024/02/09 03:16:57;;;;;;;52.55;6.55;;;;;;;;;;4976111;28;20042;-81
2024/02/09 03:19:23;;;;;;;63.40;7.32;;;;;;;;;;4975712;28;20048;-82
2024/02/09 03:21:53;;;;;;;54.20;7.45;;;;;;;;;;4993258;28;20138;-81
2024/02/09 03:24:21;;;;;;;47.10;7.25;;;;;;;;;;4975608;28;20043;-82
2024/02/09 03:26:47;;;;;;;48.28;5.80;;;;;;;;;;4993379;28;20054;-82
2024/02/09 03:29:14;;;;;;;55.00;6.55;;;;;;;;;;4992619;28;20074;-81
2024/02/09 03:31:43;;;;;;;51.00;5.93;;;;;;;;;;4993189;28;20054;-82
2024/02/09 03:34:10;;;;;;;56.88;7.32;;;;;;;;;;4991454;28;20042;-81
2024/02/09 03:36:37;;;;;;;56.67;5.85;;;;;;;;;;4993283;28;20474;-82
2024/02/09 03:39:05;;;;;;;47.90;6.25;;;;;;;;;;4991888;28;20050;-82
2024/02/09 03:41:32;;;;;;;58.05;7.47;;;;;;;;;;4991798;28;20046;-82
2024/02/09 03:44:03;;;;;;;62.65;8.52;;;;;;;;;;4993145;28;20044;-81
2024/02/09 03:46:34;;;;;;;54.33;7.07;;;;;;;;;;4992972;28;20104;-81
2024/02/09 03:49:01;;;;;;;52.85;5.97;;;;;;;;;;4993096;28;20452;-82
2024/02/09 03:51:28;;;;;;;48.63;6.43;;;;;;;;;;4992470;28;20042;-82
2024/02/09 03:53:55;;;;;;;45.22;5.38;;;;;;;;;;4994181;28;20050;-82
2024/02/09 03:56:22;;;;;;;61.50;6.65;;;;;;;;;;4996042;28;20474;-81
2024/02/09 03:58:48;;;;;;;53.90;7.10;;;;;;;;;;4996650;28;20093;-80
2024/02/09 04:01:15;;;;;;;54.28;5.60;;;;;;;;;;4996018;28;20051;-81
2024/02/09 04:03:42;;;;;;;55.85;6.45;;;;;;;;;;4979464;28;20478;-81
2024/02/09 04:06:09;;;;;;;58.25;7.25;;;;;;;;;;4995829;28;20413;-82
2024/02/09 04:08:36;;;;;;;62.22;6.57;;;;;;;;;;4996203;28;20084;-81
2024/02/09 04:11:03;;;;;;;51.90;6.97;;;;;;;;;;4996400;28;20046;-80
2024/02/09 04:13:29;;;;;;;57.03;6.43;;;;;;;;;;4996058;28;20093;-81
2024/02/09 04:16:00;;;;;;;46.15;5.95;;;;;;;;;;4996366;28;20050;-83
2024/02/09 04:18:28;;;;;;;51.45;6.60;;;;;;;;;;4978760;28;20470;-82
2024/02/09 04:20:56;;;;;;;;;;;;;;;;;;4979540;28;20042;-83
2024/02/09 04:23:23;;;;;;;58.63;5.32;;;;;;;;;;4995639;28;20016;-82
2024/02/09 04:25:50;;;;;;;60.70;7.45;;;;;;;;;;4995966;28;20073;-82
2024/02/09 04:28:17;;;;;;;59.47;6.35;;;;;;;;;;4995631;28;20093;-83
2024/02/09 04:30:46;;;;;;;54.80;7.32;;;;;;;;;;4996146;28;20046;-82
2024/02/09 04:33:15;;;;;;;71.15;8.63;;;;;;;;;;4962095;28;20046;-82
2024/02/09 04:35:43;;;;;;;56.13;6.72;;;;;;;;;;4995966;28;20077;-82
2024/02/09 04:38:12;;;;;;;63.70;7.03;;;;;;;;;;4995410;28;20042;-81
2024/02/09 04:40:39;;;;;;;66.32;6.90;;;;;;;;;;4995857;28;20046;-83
2024/02/09 04:43:06;;;;;;;55.00;6.68;;;;;;;;;;4995410;28;20050;-82
2024/02/09 04:45:33;;;;;;;62.45;7.88;;;;;;;;;;4995858;28;20038;-83
2024/02/09 04:48:00;;;;;;;63.90;7.60;;;;;;;;;;4995894;28;20042;-82
2024/02/09 04:50:27;;;;;;;69.57;7.70;;;;;;;;;;4995192;28;20046;-82
2024/02/09 04:52:54;;;;;;;59.17;7.35;;;;;;;;;;4995615;28;20042;-82
2024/02/09 04:55:21;;;;;;;55.57;7.23;;;;;;;;;;4978002;28;20054;-82
2024/02/09 04:57:48;;;;;;;63.00;7.22;;;;;;;;;;4995550;28;20044;-82
2024/02/09 05:00:16;;;;;;;58.20;6.82;;;;;;;;;;4977594;28;20497;-82
2024/02/09 05:02:46;;;;;;;67.68;7.80;;;;;;;;;;4978239;28;20053;-81
2024/02/09 05:05:13;;;;;;;62.10;7.60;;;;;;;;;;4994224;28;20047;-82
2024/02/09 05:07:41;;;;;;;62.75;7.45;;;;;;;;;;4995289;28;20046;-81
2024/02/09 05:10:08;;;;;;;73.78;7.70;;;;;;;;;;4994762;28;20062;-82
2024/02/09 05:12:35;;;;;;;61.30;7.70;;;;;;;;;;4995353;28;20046;-82
2024/02/09 05:15:02;;;;;;;75.28;8.63;;;;;;;;;;4995132;28;20061;-82
2024/02/09 05:17:29;;;;;;;69.40;8.68;;;;;;;;;;4994819;28;20057;-82
2024/02/09 05:19:58;;;;;;;58.33;7.10;;;;;;;;;;4995142;28;20097;-82
2024/02/09 05:22:27;;;;;;;74.72;7.88;;;;;;;;;;4994625;28;20483;-82
2024/02/09 05:24:55;;;;;;;73.40;8.82;;;;;;;;;;4995031;28;20046;-81
2024/02/09 05:27:22;;;;;;;58.00;7.40;;;;;;;;;;4994593;28;20042;-82
2024/02/09 05:29:49;;;;;;;61.67;8.48;;;;;;;;;;4994981;28;20046;-83
2024/02/09 05:32:16;;;;;;;61.92;8.50;;;;;;;;;;4994390;28;20500;-82
2024/02/09 05:34:44;;;;;;;77.47;8.25;;;;;;;;;;4994835;28;20050;-82
2024/02/09 05:37:12;;;;;;;62.28;8.27;;;;;;;;;;4994389;28;20500;-88
2024/02/09 05:39:43;;;;;;;71.28;7.85;;;;;;;;;;4977990;28;20481;-81
2024/02/09 05:42:10;;;;;;;73.13;8.50;;;;;;;;;;4994314;28;20039;-82
2024/02/09 05:44:37;;;;;;;67.22;9.32;;;;;;;;;;4994568;28;20054;-83
2024/02/09 05:47:03;;;;;;;78.30;8.55;;;;;;;;;;4979352;28;20050;-80
2024/02/09 05:49:30;;;;;;;69.28;8.15;;;;;;;;;;4976617;28;20045;-80
2024/02/09 05:51:57;;;;;;;66.70;7.93;;;;;;;;;;4993967;28;20045;-81
2024/02/09 05:54:25;;;;;;;75.78;7.63;;;;;;;;;;4993936;28;20054;-82
2024/02/09 05:56:52;;;;;;;63.22;9.07;;;;;;;;;;4994023;28;20038;-81
2024/02/09 05:59:21;;;;;;;61.95;7.68;;;;;;;;;;4992955;28;20034;-81
2024/02/09 06:01:48;;;;;;;67.85;7.97;;;;;;;;;;4976599;28;20039;-80
2024/02/09 06:04:15;;;;;;;66.72;8.13;;;;;;;;;;4993257;28;20038;-80
2024/02/09 06:06:44;;;;;;;70.57;7.38;;;;;;;;;;4988462;28;20101;-81
2024/02/09 06:09:11;;;;;;;53.13;7.43;;;;;;;;;;4993042;28;20034;-80
2024/02/09 06:11:38;;;;;;;55.25;6.70;;;;;;;;;;4993420;28;20042;-81
2024/02/09 06:14:04;;;;;;;32.97;5.07;;;;;;;;;;4992951;28;20043;-80
2024/02/09 06:16:31;;;;;;;35.63;5.28;;;;;;;;;;4993178;28;20065;-81
2024/02/09 06:18:58;;;;;;;34.80;4.90;;;;;;;;;;4993395;28;20042;-81
2024/02/09 06:21:26;;;;;;;50.58;5.88;;;;;;;;;;4992990;28;20133;-81
2024/02/09 06:23:53;;;;;;;45.95;5.80;;;;;;;;;;4993733;28;20050;-80
2024/02/09 06:26:23;;;;;;;43.97;5.35;;;;;;;;;;4993324;28;20046;-80
2024/02/09 06:28:51;;;;;;;62.22;7.25;;;;;;;;;;4993960;28;20133;-80
2024/02/09 06:31:23;;;;;;;58.88;6.93;;;;;;;;;;4993354;28;20101;-80
2024/02/09 06:33:54;;;;;;;64.68;7.85;;;;;;;;;;4992773;28;20046;-81
2024/02/09 06:36:22;;;;;;;63.00;7.40;;;;;;;;;;4992772;28;20108;-79
2024/02/09 06:38:50;;;;;;;59.67;7.82;;;;;;;;;;4992875;28;20070;-81
2024/02/09 06:41:17;;;;;;;59.95;8.52;;;;;;;;;;4991146;28;20057;-81
2024/02/09 06:43:43;;;;;;;78.50;8.70;;;;;;;;;;4991486;28;20042;-80
2024/02/09 06:46:10;;;;;;;83.70;8.13;;;;;;;;;;4990859;28;20046;-80
2024/02/09 06:48:37;;;;;;;56.08;7.63;;;;;;;;;;4975335;28;20062;-80
2024/02/09 06:51:05;;;;;;;69.60;7.53;;;;;;;;;;4993138;28;20138;-78
2024/02/09 06:53:32;;;;;;;63.10;7.03;;;;;;;;;;4993473;28;20042;-79
2024/02/09 06:56:00;;;;;;;65.63;7.30;;;;;;;;;;4976017;28;20044;-80
2024/02/09 06:58:28;;;;;;;64.43;7.13;;;;;;;;;;4991848;28;20049;-79
2024/02/09 07:00:56;;;;;;;56.75;6.93;;;;;;;;;;4992509;28;20127;-81
2024/02/09 07:03:24;;;;;;;66.22;8.50;;;;;;;;;;4993060;28;20382;-81
2024/02/09 07:05:54;;;;;;;58.47;7.32;;;;;;;;;;4993376;28;20093;-80
2024/02/09 07:08:30;;;;;;;71.13;8.00;;;;;;;;;;4992762;28;20062;-81
2024/02/09 07:10:59;;;;;;;65.25;6.50;;;;;;;;;;4976430;28;20042;-80
2024/02/09 07:13:26;;;;;;;;;;;;;;;;;;4993504;28;20072;-81
2024/02/09 07:15:53;;;;;;;65.75;6.85;;;;;;;;;;4993394;28;20308;-80
2024/02/09 07:18:20;;;;;;;69.40;7.32;;;;;;;;;;4993069;28;20089;-81
2024/02/09 07:20:46;;;;;;;69.57;6.63;;;;;;;;;;4993185;28;20509;-80
2024/02/09 07:23:13;;;;;;;76.00;8.70;;;;;;;;;;4975371;28;20454;-80
2024/02/09 07:25:40;;;;;;;61.75;7.07;;;;;;;;;;4991842;28;20389;-80
2024/02/09 07:28:06;;;;;;;77.82;7.32;;;;;;;;;;4992828;28;20074;-80
2024/02/09 07:30:33;;;;;;;61.13;7.07;;;;;;;;;;4997178;28;20038;-80
2024/02/09 07:33:00;;;;;;;76.82;8.27;;;;;;;;;;4996969;28;20389;-81
2024/02/09 07:35:27;;;;;;;72.82;7.47;;;;;;;;;;4996566;28;20062;-80
2024/02/09 07:37:53;;;;;;;61.75;6.72;;;;;;;;;;4996143;28;20050;-80
2024/02/09 07:40:20;;;;;;;70.70;6.78;;;;;;;;;;4996297;28;20047;-81
2024/02/09 07:42:47;;;;;;;69.57;8.32;;;;;;;;;;4996701;28;20413;-81
2024/02/09 07:45:20;;;;;;;65.50;7.25;;;;;;;;;;4979264;28;20525;-80
2024/02/09 07:47:48;;;;;;;65.93;6.60;;;;;;;;;;4997077;28;20489;-80
2024/02/09 07:50:16;;;;;;;65.90;7.82;;;;;;;;;;4996425;28;20042;-80
2024/02/09 07:52:42;;;;;;;86.60;8.00;;;;;;;;;;4996487;28;20077;-81
2024/02/09 07:55:13;;;;;;;57.42;5.80;;;;;;;;;;4996209;28;20501;-81
2024/02/09 07:57:43;;;;;;;61.90;6.53;;;;;;;;;;4997293;28;20053;-82
2024/02/09 08:00:11;;;;;;;57.85;6.78;;;;;;;;;;4978353;28;20049;-81
2024/02/09 08:02:40;;;;;;;65.65;6.13;;;;;;;;;;5011664;28;20088;-82
2024/02/09 08:05:08;;;;;;;56.65;7.07;;;;;;;;;;5010656;28;20054;-81
2024/02/09 08:07:36;;;;;;;61.38;6.43;;;;;;;;;;4997283;28;20066;-81
2024/02/09 08:10:03;;;;;;;54.70;6.68;;;;;;;;;;4994191;28;20046;-81
2024/02/09 08:12:32;;;;;;;50.83;5.75;;;;;;;;;;4994271;28;20046;-81
2024/02/09 08:14:59;;;;;;;49.53;4.97;;;;;;;;;;5005450;28;20037;-82
2024/02/09 08:17:26;;;;;;;50.85;5.35;;;;;;;;;;5015303;28;20461;-82
2024/02/09 08:19:53;;;;;;;47.72;5.43;;;;;;;;;;5014429;28;20309;-81
2024/02/09 08:22:22;;;;;;;61.03;7.10;;;;;;;;;;4994291;28;20477;-81
2024/02/09 08:24:50;;;;;;;57.50;6.95;;;;;;;;;;4995361;28;20054;-82
2024/02/09 08:27:16;;;;;;;51.95;6.32;;;;;;;;;;4989188;28;20058;-81
2024/02/09 08:29:43;;;;;;;61.83;7.57;;;;;;;;;;4990824;28;20057;-81
2024/02/09 08:32:10;;;;;;;65.10;6.90;;;;;;;;;;4988395;28;20038;-80
2024/02/09 08:34:37;;;;;;;65.60;7.47;;;;;;;;;;4991911;28;20481;-81
2024/02/09 08:37:04;;;;;;;55.65;6.03;;;;;;;;;;4993429;28;20042;-81
2024/02/09 08:39:31;;;;;;;47.80;6.40;;;;;;;;;;4994223;28;20058;-81
2024/02/09 08:41:58;;;;;;;52.35;6.43;;;;;;;;;;4994676;28;20493;-81
2024/02/09 08:44:24;;;;;;;55.50;6.30;;;;;;;;;;4995320;28;20054;-81
2024/02/09 08:46:51;;;;;;;64.13;6.90;;;;;;;;;;4995736;28;20075;-81
2024/02/09 08:49:18;;;;;;;59.72;8.63;;;;;;;;;;4995433;28;20046;-81
2024/02/09 08:51:45;;;;;;;64.95;7.45;;;;;;;;;;4995708;28;20050;-81
2024/02/09 08:54:13;;;;;;;58.60;7.60;;;;;;;;;;4995140;28;20363;-80
2024/02/09 08:56:41;;;;;;;66.32;8.70;;;;;;;;;;4995776;28;20050;-81
2024/02/09 08:59:07;;;;;;;72.72;14.40;;;;;;;;;;4994956;28;20038;-81
2024/02/09 09:01:38;;;;;;;53.13;7.20;;;;;;;;;;4995489;28;20073;-80
2024/02/09 09:04:05;;;;;;;60.42;8.93;;;;;;;;;;4993830;28;20097;-80
2024/02/09 09:06:33;;;;;;;70.38;7.00;;;;;;;;;;4983854;28;20046;-81
2024/02/09 09:09:04;;;;;;;60.55;6.38;;;;;;;;;;4991813;28;20125;-81
2024/02/09 09:11:31;;;;;;;65.07;9.90;;;;;;;;;;4983137;28;20046;-81
2024/02/09 09:13:57;;;;;;;55.65;6.82;;;;;;;;;;4994258;28;20046;-80
2024/02/09 09:16:24;;;;;;;59.28;6.05;;;;;;;;;;4980454;28;20078;-81
2024/02/09 09:18:51;;;;;;;61.92;6.45;;;;;;;;;;4987430;28;20039;-80
2024/02/09 09:21:18;;;;;;;59.95;6.53;;;;;;;;;;4994884;28;20382;-81
2024/02/09 09:23:45;;;;;;;54.95;6.18;;;;;;;;;;4995076;28;20054;-80
2024/02/09 09:26:11;;;;;;;74.43;6.20;;;;;;;;;;4994464;28;20100;-80
2024/02/09 09:28:53;;;;;;;57.65;6.10;;;;;;;;;;4994993;28;20046;-79
2024/02/09 09:31:20;;;;;;;53.08;5.72;;;;;;;;;;4988472;28;20037;-80
2024/02/09 09:33:47;;;;;;;56.00;6.30;;;;;;;;;;4982853;28;20484;-80
2024/02/09 09:36:14;;;;;;;58.40;6.75;;;;;;;;;;4994449;28;20050;-80
2024/02/09 09:38:42;;;;;;;61.22;6.13;;;;;;;;;;4994895;28;20445;-81
2024/02/09 09:41:10;;;;;;;57.13;5.90;;;;;;;;;;4994164;28;20054;-81
2024/02/09 09:43:37;;;;;;;59.60;6.57;;;;;;;;;;4994699;28;20125;-81
2024/02/09 09:46:08;;;;;;;54.35;6.55;;;;;;;;;;4994212;28;20053;-80
2024/02/09 09:48:37;;;;;;;61.63;7.55;;;;;;;;;;4994828;28;20077;-80
2024/02/09 09:51:05;;;;;;;62.15;6.65;;;;;;;;;;4994004;28;20042;-80
2024/02/09 09:53:39;;;;;;;64.97;6.82;;;;;;;;;;4994408;28;20405;-80
2024/02/09 09:56:06;;;;;;;54.15;7.18;;;;;;;;;;4994157;28;20051;-81
2024/02/09 09:58:37;;;;;;;54.47;6.25;;;;;;;;;;4994416;28;20064;-80
2024/02/09 10:01:06;;;;;;;59.72;6.75;;;;;;;;;;4993832;28;20039;-80
2024/02/09 10:03:43;;;;;;;70.22;7.15;;;;;;;;;;4994339;28;20061;-81
2024/02/09 10:06:10;;;;;;;59.58;6.22;;;;;;;;;;4976524;28;20382;-80
2024/02/09 10:08:38;;;;;;;69.43;7.47;;;;;;;;;;4994147;28;20046;-81
2024/02/09 10:11:06;;;;;;;53.80;8.05;;;;;;;;;;4993771;28;20057;-81
2024/02/09 10:13:35;;;;;;;58.78;6.68;;;;;;;;;;4994162;28;20473;-81
2024/02/09 10:16:03;;;;;;;64.05;7.80;;;;;;;;;;4994166;28;20385;-82
2024/02/09 10:18:35;;;;;;;59.40;6.97;;;;;;;;;;4993898;28;20447;-80
2024/02/09 10:21:06;;;;;;;64.80;6.63;;;;;;;;;;4994149;28;20052;-81
2024/02/09 10:23:34;;;;;;;45.78;6.10;;;;;;;;;;4993697;28;20077;-81
2024/02/09 10:26:05;;;;;;;53.83;6.75;;;;;;;;;;4994006;28;20392;-81
2024/02/09 10:28:36;;;;;;;57.05;7.25;;;;;;;;;;4993780;28;20045;-80
2024/02/09 10:31:04;;;;;;;54.70;6.63;;;;;;;;;;4993564;28;20448;-79
2024/02/09 10:33:31;;;;;;;43.65;6.32;;;;;;;;;;4994738;28;20390;-81
2024/02/09 10:35:59;;;;;;;49.30;5.70;;;;;;;;;;4993844;28;20482;-82
2024/02/09 10:38:27;;;;;;;;;;;;;;;;;;4976635;28;20053;-81
2024/02/09 10:40:55;;;;;;;57.67;6.88;;;;;;;;;;4993599;28;19964;-81
2024/02/09 10:43:23;;;;;;;48.73;6.00;;;;;;;;;;4993277;28;20038;-82
2024/02/09 10:45:51;;;;;;;52.60;8.07;;;;;;;;;;4993885;28;20073;-81
2024/02/09 10:48:28;;;;;;;55.25;6.40;;;;;;;;;;4993024;28;20125;-82
2024/02/09 10:50:55;;;;;;;60.40;7.05;;;;;;;;;;4993666;28;20129;-82
2024/02/09 10:53:26;;;;;;;54.97;6.35;;;;;;;;;;4993112;28;20042;-82
2024/02/09 10:56:04;;;;;;;45.03;6.25;;;;;;;;;;4993702;28;20058;-82
2024/02/09 10:58:35;;;;;;;47.97;5.75;;;;;;;;;;4976293;28;20042;-81
2024/02/09 11:01:04;;;;;;;44.70;6.22;;;;;;;;;;4993479;28;20050;-81
2024/02/09 11:03:32;;;;;;;38.50;4.47;;;;;;;;;;4975491;28;20069;-81
2024/02/09 11:06:01;;;;;;;40.42;5.30;;;;;;;;;;4993389;28;20389;-82
2024/02/09 11:08:29;;;;;;;38.53;5.05;;;;;;;;;;4975687;28;20062;-81
2024/02/09 11:11:00;;;;;;;43.58;4.93;;;;;;;;;;4993345;28;20042;-82
2024/02/09 11:13:27;;;;;;;42.88;5.25;;;;;;;;;;4975740;28;20046;-81
2024/02/09 11:15:58;;;;;;;48.33;5.38;;;;;;;;;;4993340;28;20092;-80
2024/02/09 11:18:35;;;;;;;49.08;5.75;;;;;;;;;;4992976;28;20038;-80
2024/02/09 11:21:07;;;;;;;44.78;6.05;;;;;;;;;;4993144;28;20557;-80
2024/02/09 11:23:43;;;;;;;39.08;5.25;;;;;;;;;;4992976;28;20038;-80
2024/02/09 11:26:16;;;;;;;54.67;6.22;;;;;;;;;;4975582;28;20050;-80
2024/02/09 11:28:43;;;;;;;54.97;6.82;;;;;;;;;;4993352;28;20043;-82
2024/02/09 11:31:10;;;;;;;47.22;6.20;;;;;;;;;;4992917;28;20073;-81
2024/02/09 11:33:41;;;;;;;59.07;7.30;;;;;;;;;;4993198;28;20050;-81
2024/02/09 11:36:08;;;;;;;45.13;7.78;;;;;;;;;;4992820;28;20042;-80
2024/02/09 11:38:35;;;;;;;49.35;6.78;;;;;;;;;;4993326;28;20494;-81
2024/02/09 11:41:02;;;;;;;48.85;6.05;;;;;;;;;;4992881;28;20481;-81
2024/02/09 11:43:31;;;;;;;53.15;6.68;;;;;;;;;;4992670;28;20054;-81
2024/02/09 11:45:58;;;;;;;54.45;6.95;;;;;;;;;;4992954;28;20374;-81
2024/02/09 11:48:25;;;;;;;63.97;7.35;;;;;;;;;;4992577;28;20042;-81
2024/02/09 11:50:57;;;;;;;50.88;6.47;;;;;;;;;;4990396;28;20153;-81
2024/02/09 11:53:25;;;;;;;52.63;7.97;;;;;;;;;;4992088;28;20054;-82
2024/02/09 11:55:53;;;;;;;49.83;6.93;;;;;;;;;;4992555;28;20444;-80
2024/02/09 11:58:20;;;;;;;56.72;7.30;;;;;;;;;;4991941;28;20042;-81
2024/02/09 12:00:50;;;;;;;57.05;6.70;;;;;;;;;;4990798;28;20133;-82
2024/02/09 12:03:17;;;;;;;57.92;8.07;;;;;;;;;;4988508;28;20061;-81
2024/02/09 12:05:46;;;;;;;44.47;6.28;;;;;;;;;;4991144;28;20046;-81
2024/02/09 12:08:17;;;;;;;52.75;7.35;;;;;;;;;;4989168;28;20035;-80
2024/02/09 12:10:44;;;;;;;44.25;5.15;;;;;;;;;;4992448;28;20133;-80
2024/02/09 12:13:11;;;;;;;42.75;5.63;;;;;;;;;;4974688;28;20050;-81
2024/02/09 12:15:38;;;;;;;41.42;5.47;;;;;;;;;;4994299;28;20050;-80
2024/02/09 12:18:05;;;;;;;44.75;7.88;;;;;;;;;;4995241;28;20050;-80
2024/02/09 12:20:33;;;;;;;41.90;5.72;;;;;;;;;;4995818;28;20050;-81
2024/02/09 12:23:04;;;;;;;48.38;6.00;;;;;;;;;;4995580;28;20504;-81
2024/02/09 12:25:37;;;;;;;64.43;8.43;;;;;;;;;;4995345;28;20042;-83
2024/02/09 12:28:09;;;;;;;58.33;6.72;;;;;;;;;;4961829;28;20046;-81
2024/02/09 12:30:37;;;;;;;51.15;7.78;;;;;;;;;;4996724;28;20042;-81
2024/02/09 12:33:04;;;;;;;44.92;6.65;;;;;;;;;;5014176;28;20069;-80
2024/02/09 12:35:32;;;;;;;59.55;7.47;;;;;;;;;;4978801;28;20049;-82
2024/02/09 12:37:58;;;;;;;49.15;7.43;;;;;;;;;;4978520;28;20054;-82
2024/02/09 12:40:25;;;;;;;69.70;8.00;;;;;;;;;;4993336;28;20046;-82
2024/02/09 12:42:55;;;;;;;61.17;8.10;;;;;;;;;;4989506;28;20057;-82
2024/02/09 12:45:26;;;;;;;71.95;9.68;;;;;;;;;;4993620;28;20041;-82
2024/02/09 12:47:53;;;;;;;56.22;7.20;;;;;;;;;;4993815;28;20034;-81
2024/02/09 12:50:20;;;;;;;55.47;8.23;;;;;;;;;;4991310;28;20038;-82
2024/02/09 12:52:49;;;;;;;67.53;8.90;;;;;;;;;;4997087;28;20374;-82
2024/02/09 12:55:19;;;;;;;;;;;;;;;;;;4994709;28;20053;-82
2024/02/09 12:57:48;;;;;;;56.38;7.75;;;;;;;;;;4977200;28;19922;-82
2024/02/09 13:00:15;;;;;;;56.78;7.78;;;;;;;;;;4991084;28;20054;-81
2024/02/09 13:02:42;;;;;;;50.50;6.55;;;;;;;;;;4993975;28;20497;-82
2024/02/09 13:05:09;;;;;;;48.80;7.25;;;;;;;;;;4990872;28;20046;-82
2024/02/09 13:07:36;;;;;;;48.72;8.23;;;;;;;;;;4993951;28;20042;-81
2024/02/09 13:10:04;;;;;;;56.20;7.07;;;;;;;;;;4974267;28;20552;-82
2024/02/09 13:12:36;;;;;;;61.17;7.20;;;;;;;;;;4991423;28;20101;-82
2024/02/09 13:15:15;;;;;;;57.67;7.68;;;;;;;;;;4993048;28;20141;-82
2024/02/09 13:17:41;;;;;;;48.77;7.43;;;;;;;;;;4994093;28;20468;-82
2024/02/09 13:20:09;;;;;;;48.88;6.88;;;;;;;;;;4994096;28;20045;-82
2024/02/09 13:22:37;;;;;;;41.15;7.38;;;;;;;;;;4992244;28;20050;-82
2024/02/09 13:25:05;;;;;;;42.97;6.88;;;;;;;;;;4977300;28;20481;-82
2024/02/09 13:27:32;;;;;;;55.45;6.32;;;;;;;;;;4994050;28;20129;-81
2024/02/09 13:29:58;;;;;;;35.47;6.15;;;;;;;;;;4993682;28;20044;-83
2024/02/09 13:32:31;;;;;;;32.67;5.00;;;;;;;;;;4994104;28;20053;-82
2024/02/09 13:34:58;;;;;;;40.80;6.40;;;;;;;;;;4977447;28;20401;-82
2024/02/09 13:37:26;;;;;;;43.17;6.00;;;;;;;;;;4994375;28;20046;-82
2024/02/09 13:39:55;;;;;;;37.70;6.30;;;;;;;;;;4994907;28;20100;-83
2024/02/09 13:42:22;;;;;;;38.25;5.28;;;;;;;;;;4994238;28;20513;-83
2024/02/09 13:44:49;;;;;;;45.67;6.30;;;;;;;;;;4994791;28;20038;-83
2024/02/09 13:47:15;;;;;;;35.97;5.57;;;;;;;;;;4991598;28;20389;-82
2024/02/09 13:49:42;;;;;;;40.75;5.53;;;;;;;;;;4994065;28;20452;-83
2024/02/09 13:52:09;;;;;;;45.00;5.38;;;;;;;;;;4993273;28;20050;-83
2024/02/09 13:54:36;;;;;;;33.53;4.88;;;;;;;;;;4976733;28;20374;-82
2024/02/09 13:57:03;;;;;;;41.78;6.07;;;;;;;;;;4993546;28;20042;-83
2024/02/09 13:59:30;;;;;;;27.35;4.00;;;;;;;;;;4993201;28;20051;-82
2024/02/09 14:01:56;;;;;;;31.35;3.80;;;;;;;;;;4993511;28;20046;-82
2024/02/09 14:04:25;;;;;;;39.25;5.15;;;;;;;;;;4989266;28;20749;-83
2024/02/09 14:06:53;;;;;;;34.60;3.63;;;;;;;;;;4990035;28;20084;-82
2024/02/09 14:09:19;;;;;;;33.30;4.07;;;;;;;;;;4992213;28;20042;-83
2024/02/09 14:11:46;;;;;;;30.83;4.15;;;;;;;;;;4992827;28;20104;-82
2024/02/09 14:14:18;;;;;;;28.85;4.32;;;;;;;;;;4992572;28;20481;-82
2024/02/09 14:16:45;;;;;;;33.00;3.67;;;;;;;;;;4993279;28;20408;-82
2024/02/09 14:19:13;;;;;;;31.13;4.05;;;;;;;;;;4992540;28;20397;-82
2024/02/09 14:21:40;;;;;;;36.58;3.85;;;;;;;;;;4992835;28;20050;-82
2024/02/09 14:24:07;;;;;;;26.63;3.10;;;;;;;;;;4991958;28;20393;-82
2024/02/09 14:26:34;;;;;;;30.60;3.78;;;;;;;;;;4991963;28;20524;-81
2024/02/09 14:29:02;;;;;;;32.17;4.30;;;;;;;;;;4991680;28;20034;-81
2024/02/09 14:31:29;;;;;;;;;;;;;;;;;;4975405;28;20046;-81
2024/02/09 14:33:56;;;;;;;32.90;4.15;;;;;;;;;;4992074;28;20008;-82
2024/02/09 14:36:23;;;;;;;30.77;4.25;;;;;;;;;;4987103;28;20062;-82
2024/02/09 14:38:50;;;;;;;21.02;3.65;;;;;;;;;;4991526;28;20049;-82
2024/02/09 14:41:18;;;;;;;32.83;5.20;;;;;;;;;;4992299;28;20066;-82
2024/02/09 14:43:48;;;;;;;26.98;4.82;;;;;;;;;;4975261;28;20042;-81
2024/02/09 14:46:15;;;;;;;23.20;3.63;;;;;;;;;;4991355;28;20038;-81
2024/02/09 14:48:42;;;;;;;27.73;3.75;;;;;;;;;;4992252;28;20106;-82
2024/02/09 14:51:09;;;;;;;30.20;4.20;;;;;;;;;;4992458;28;20054;-82
2024/02/09 14:53:36;;;;;;;26.73;3.28;;;;;;;;;;4992533;28;20057;-82
2024/02/09 14:56:07;;;;;;;29.35;3.90;;;;;;;;;;4992199;28;20053;-82
2024/02/09 14:58:34;;;;;;;28.65;4.07;;;;;;;;;;4992380;28;20050;-82
2024/02/09 15:01:01;;;;;;;28.65;4.20;;;;;;;;;;4992422;28;20051;-82
2024/02/09 15:03:30;;;;;;;31.27;5.07;;;;;;;;;;4992019;28;20591;-82
2024/02/09 15:05:56;;;;;;;;;;;;;;;;;;4992051;28;20042;-83
2024/02/09 15:08:23;;;;;;;20.63;3.40;;;;;;;;;;4990573;28;20438;-83
2024/02/09 15:10:50;;;;;;;20.23;3.47;;;;;;;;;;4992278;28;20062;-82
2024/02/09 15:13:17;;;;;;;24.90;3.00;;;;;;;;;;4993279;28;20046;-82
2024/02/09 15:15:44;;;;;;;24.35;3.00;;;;;;;;;;4991158;28;20206;-83
2024/02/09 15:18:15;;;;;;;20.80;2.60;;;;;;;;;;4990577;28;20038;-82
2024/02/09 15:20:43;;;;;;;17.70;2.75;;;;;;;;;;4993869;28;20114;-82
2024/02/09 15:23:12;;;;;;;24.60;4.18;;;;;;;;;;4990348;28;20049;-82
2024/02/09 15:25:40;;;;;;;18.95;3.97;;;;;;;;;;4990513;28;20042;-83
2024/02/09 15:28:07;;;;;;;24.73;3.40;;;;;;;;;;4989798;28;20069;-82
2024/02/09 15:30:34;;;;;;;19.30;2.83;;;;;;;;;;4990468;28;20060;-82
2024/02/09 15:33:00;;;;;;;20.27;3.00;;;;;;;;;;4991108;28;20042;-81
2024/02/09 15:35:27;;;;;;;18.38;3.53;;;;;;;;;;4991410;28;20054;-83
2024/02/09 15:37:54;;;;;;;21.45;3.10;;;;;;;;;;4991563;28;20482;-83
2024/02/09 15:40:24;;;;;;;21.48;3.15;;;;;;;;;;4991264;28;20050;-81
2024/02/09 15:42:51;;;;;;;27.67;3.38;;;;;;;;;;4991375;28;20048;-82
2024/02/09 15:45:20;;;;;;;21.67;4.13;;;;;;;;;;4991357;28;20031;-82
2024/02/09 15:47:47;;;;;;;18.65;3.22;;;;;;;;;;4991890;28;20042;-81
2024/02/09 15:50:14;;;;;;;20.90;3.83;;;;;;;;;;4992870;28;20043;-83
2024/02/09 15:52:41;;;;;;;26.38;5.18;;;;;;;;;;4995261;28;20042;-82
2024/02/09 15:55:08;;;;;;;24.63;2.97;;;;;;;;;;4977861;28;20393;-81
2024/02/09 15:57:36;;;;;;;23.00;3.67;;;;;;;;;;4995699;28;20061;-81
2024/02/09 16:00:04;;;;;;;20.30;3.47;;;;;;;;;;4995921;28;20146;-82
2024/02/09 16:02:32;;;;;;;31.58;3.70;;;;;;;;;;4995556;28;20046;-81
2024/02/09 16:05:00;;;;;;;28.92;3.75;;;;;;;;;;4995514;28;20469;-82
2024/02/09 16:07:27;;;;;;;20.88;3.55;;;;;;;;;;4995015;28;20042;-81
2024/02/09 16:09:54;;;;;;;24.17;3.17;;;;;;;;;;4995609;28;20042;-81
2024/02/09 16:12:20;;;;;;;28.23;4.57;;;;;;;;;;4989877;28;20057;-82
2024/02/09 16:14:47;;;;;;;22.15;3.83;;;;;;;;;;4995492;28;20050;-82
2024/02/09 16:17:14;;;;;;;22.83;7.82;;;;;;;;;;4995025;28;20552;-81
2024/02/09 16:19:40;;;;;;;26.30;5.35;;;;;;;;;;4995364;28;20046;-83
2024/02/09 16:22:07;;;;;;;26.77;6.55;;;;;;;;;;4994857;28;20417;-80